Time;durP1;ratioP1;P1;durP2;ratioP2;P2;SDS_P1;SDS_P2;PMS_P1;PMS_P2;Temp;Humidity;BMP_temperature;BMP_pressure;BME280_temperature;BME280_humidity;BME280_pressure;Samples;Min_cycle;Max_cycle;Signal;HPM_P1;HPM_P2
2020/12/25 00:00:13;;;;;;;2.23;1.00;;;3.50;91.20;;;;;;5052494;28;20438;-74
2020/12/25 00:02:39;;;;;;;1.60;0.80;;;3.60;91.10;;;;;;5052849;28;20037;-75
2020/12/25 00:05:04;;;;;;;1.53;1.00;;;3.60;91.10;;;;;;5035102;28;20050;-75
2020/12/25 00:07:30;;;;;;;1.40;1.03;;;3.60;91.10;;;;;;5051816;28;20386;-75
2020/12/25 00:09:56;;;;;;;1.20;0.93;;;3.60;91.20;;;;;;5034727;28;20029;-75
2020/12/25 00:12:21;;;;;;;0.90;0.80;;;3.60;91.10;;;;;;5051942;28;20033;-75
2020/12/25 00:14:47;;;;;;;1.10;0.70;;;3.70;91.10;;;;;;5052759;28;20105;-75
2020/12/25 00:17:12;;;;;;;1.47;0.90;;;3.80;91.00;;;;;;5052107;28;20025;-74
2020/12/25 00:19:38;;;;;;;1.07;0.80;;;3.80;91.10;;;;;;5052627;28;20076;-75
2020/12/25 00:22:04;;;;;;;1.50;0.90;;;3.80;91.20;;;;;;5052651;28;20466;-75
2020/12/25 00:24:29;;;;;;;1.30;0.90;;;3.80;91.20;;;;;;5034162;28;20557;-75
2020/12/25 00:26:55;;;;;;;1.13;0.90;;;3.80;91.10;;;;;;5052710;28;20029;-75
2020/12/25 00:29:21;;;;;;;1.60;1.00;;;3.80;91.20;;;;;;5034071;28;20036;-75
2020/12/25 00:31:46;;;;;;;1.10;1.00;;;3.80;91.20;;;;;;5034661;28;20032;-75
2020/12/25 00:34:12;;;;;;;1.80;1.20;;;3.80;91.30;;;;;;5051946;28;20032;-74
2020/12/25 00:36:40;;;;;;;3.17;1.50;;;3.80;91.40;;;;;;5052172;28;20025;-75
2020/12/25 00:39:12;;;;;;;2.77;1.07;;;3.80;91.30;;;;;;5034481;28;20028;-75
2020/12/25 00:41:41;;;;;;;;;;;3.70;91.30;;;;;;5052828;28;20082;-75
2020/12/25 00:44:07;;;;;;;3.20;1.27;;;3.70;91.30;;;;;;5052360;28;19950;-75
2020/12/25 00:46:33;;;;;;;1.30;1.20;;;3.70;91.40;;;;;;5051775;28;20029;-76
2020/12/25 00:48:59;;;;;;;1.40;1.00;;;3.70;91.40;;;;;;5052440;28;20477;-75
2020/12/25 00:51:24;;;;;;;1.73;0.97;;;3.70;91.50;;;;;;5051283;28;20485;-74
2020/12/25 00:53:50;;;;;;;1.53;0.93;;;3.80;91.50;;;;;;5034428;28;20065;-75
2020/12/25 00:56:16;;;;;;;1.47;0.93;;;3.80;91.30;;;;;;5033799;28;20029;-74
2020/12/25 00:58:42;;;;;;;1.33;0.90;;;3.80;91.40;;;;;;5052205;28;20462;-75
2020/12/25 01:01:09;;;;;;;1.23;0.90;;;3.80;91.40;;;;;;5034397;28;20043;-75
2020/12/25 01:03:37;;;;;;;1.30;0.80;;;3.80;91.30;;;;;;5033844;28;20028;-75
2020/12/25 01:06:17;;;;;;;1.03;0.80;;;3.90;91.30;;;;;;5052166;28;20021;-75
2020/12/25 01:08:48;;;;;;;0.90;0.70;;;3.90;91.20;;;;;;5052170;28;20086;-75
2020/12/25 01:11:14;;;;;;;1.63;0.93;;;3.90;91.20;;;;;;5034266;28;20036;-75
2020/12/25 01:13:41;;;;;;;1.97;0.90;;;3.90;91.20;;;;;;5034473;28;20059;-75
2020/12/25 01:16:09;;;;;;;1.07;0.63;;;3.90;91.20;;;;;;5034225;28;20091;-76
2020/12/25 01:18:35;;;;;;;0.83;0.50;;;4.00;91.10;;;;;;5033521;28;20029;-75
2020/12/25 01:21:01;;;;;;;0.70;0.57;;;4.00;91.20;;;;;;5037462;28;20029;-75
2020/12/25 01:23:26;;;;;;;2.80;0.67;;;4.10;91.10;;;;;;5055365;28;20078;-75
2020/12/25 01:25:52;;;;;;;0.90;0.50;;;4.00;91.00;;;;;;5055701;28;20033;-76
2020/12/25 01:28:18;;;;;;;0.60;0.60;;;4.00;91.10;;;;;;5037343;28;20033;-74
2020/12/25 01:30:44;;;;;;;0.97;0.50;;;4.00;91.00;;;;;;5055737;28;20108;-75
2020/12/25 01:33:10;;;;;;;1.73;0.60;;;4.00;91.10;;;;;;5037870;28;20576;-75
2020/12/25 01:35:36;;;;;;;1.77;1.10;;;4.10;91.20;;;;;;5055149;28;20047;-75
2020/12/25 01:38:02;;;;;;;2.00;1.40;;;4.10;91.30;;;;;;5055715;28;20031;-75
2020/12/25 01:40:27;;;;;;;3.13;1.40;;;4.20;91.20;;;;;;5054947;28;20033;-75
2020/12/25 01:42:53;;;;;;;2.27;1.70;;;4.10;91.20;;;;;;5055601;28;20458;-75
2020/12/25 01:45:19;;;;;;;3.90;1.60;;;4.10;91.30;;;;;;5037145;28;20035;-75
2020/12/25 01:47:44;;;;;;;2.73;1.60;;;4.10;91.30;;;;;;5055549;28;20021;-75
2020/12/25 01:50:13;;;;;;;2.73;1.30;;;4.00;91.30;;;;;;5055380;28;20064;-75
2020/12/25 01:52:40;;;;;;;3.10;1.50;;;4.00;91.40;;;;;;5036544;28;20139;-75
2020/12/25 01:55:08;;;;;;;2.03;1.50;;;4.00;91.40;;;;;;5037378;28;20059;-75
2020/12/25 01:57:34;;;;;;;2.33;1.60;;;4.00;91.40;;;;;;5054385;28;20433;-75
2020/12/25 02:00:01;;;;;;;1.93;1.53;;;4.00;91.40;;;;;;5055473;28;20033;-75
2020/12/25 02:02:29;;;;;;;1.90;1.57;;;4.00;91.50;;;;;;5054214;28;20493;-75
2020/12/25 02:04:54;;;;;;;2.90;1.60;;;4.10;91.10;;;;;;5055166;28;20454;-75
2020/12/25 02:07:20;;;;;;;3.40;1.67;;;4.10;91.20;;;;;;5054543;28;20112;-74
2020/12/25 02:09:46;;;;;;;2.80;1.77;;;4.10;91.20;;;;;;5037347;28;20025;-75
2020/12/25 02:12:11;;;;;;;2.33;1.50;;;4.00;91.20;;;;;;5055256;28;20499;-75
2020/12/25 02:14:38;;;;;;;3.87;1.60;;;4.10;91.10;;;;;;5054468;28;20273;-74
2020/12/25 02:17:03;;;;;;;2.27;1.53;;;4.10;91.10;;;;;;5037053;28;20028;-75
2020/12/25 02:19:29;;;;;;;2.10;1.60;;;4.10;91.20;;;;;;5036431;28;20025;-74
2020/12/25 02:21:55;;;;;;;2.70;1.57;;;4.10;91.20;;;;;;5054424;28;20167;-75
2020/12/25 02:24:20;;;;;;;2.47;1.60;;;4.10;91.30;;;;;;5036264;28;20386;-74
2020/12/25 02:26:46;;;;;;;2.67;1.63;;;4.10;91.60;;;;;;5036811;28;20028;-75
2020/12/25 02:29:11;;;;;;;2.17;1.47;;;4.10;91.30;;;;;;5036854;28;20029;-75
2020/12/25 02:31:37;;;;;;;2.40;1.57;;;4.10;91.30;;;;;;5053066;28;20035;-75
2020/12/25 02:34:03;;;;;;;2.23;1.60;;;4.20;91.30;;;;;;5054625;28;20355;-75
2020/12/25 02:36:28;;;;;;;1.97;1.30;;;4.20;91.30;;;;;;5036144;28;20029;-75
2020/12/25 02:38:54;;;;;;;3.33;1.63;;;4.20;91.20;;;;;;5036720;28;20029;-75
2020/12/25 02:41:21;;;;;;;2.50;1.70;;;4.20;91.20;;;;;;5053421;28;20040;-73
2020/12/25 02:43:48;;;;;;;2.50;1.53;;;4.10;91.30;;;;;;5036549;28;20083;-75
2020/12/25 02:46:14;;;;;;;2.77;1.67;;;4.10;91.40;;;;;;5036577;28;20032;-75
2020/12/25 02:48:39;;;;;;;2.63;1.50;;;4.10;91.40;;;;;;5035988;28;20293;-75
2020/12/25 02:51:05;;;;;;;2.90;1.57;;;4.20;91.30;;;;;;5054369;28;20037;-75
2020/12/25 02:53:31;;;;;;;1.63;1.00;;;4.10;91.30;;;;;;5053877;28;20138;-75
2020/12/25 02:55:57;;;;;;;2.40;1.10;;;4.20;91.20;;;;;;5036105;28;20029;-75
2020/12/25 02:58:22;;;;;;;1.60;1.40;;;4.20;91.10;;;;;;5035757;28;20588;-74
2020/12/25 03:00:48;;;;;;;2.33;1.33;;;4.20;91.20;;;;;;5053995;28;20472;-75
2020/12/25 03:03:13;;;;;;;3.07;1.20;;;4.20;91.10;;;;;;5036149;28;20036;-75
2020/12/25 03:05:39;;;;;;;2.20;1.50;;;4.20;91.00;;;;;;5035628;28;20029;-75
2020/12/25 03:08:04;;;;;;;3.30;1.50;;;4.30;91.10;;;;;;5036162;28;20047;-75
2020/12/25 03:10:30;;;;;;;1.87;1.50;;;4.30;91.20;;;;;;5053330;28;20032;-74
2020/12/25 03:12:56;;;;;;;3.87;1.57;;;4.30;91.10;;;;;;5053930;28;20032;-75
2020/12/25 03:15:21;;;;;;;2.80;1.53;;;4.30;90.90;;;;;;5053211;28;20036;-74
2020/12/25 03:17:47;;;;;;;2.73;1.60;;;4.40;91.10;;;;;;5053532;28;20033;-75
2020/12/25 03:20:13;;;;;;;2.67;1.97;;;4.40;90.90;;;;;;5053720;28;20451;-75
2020/12/25 03:22:38;;;;;;;2.93;1.70;;;4.40;90.90;;;;;;5035112;28;20033;-75
2020/12/25 03:25:04;;;;;;;2.20;1.63;;;4.40;90.80;;;;;;5053179;28;20091;-75
2020/12/25 03:27:29;;;;;;;3.60;1.83;;;4.40;90.70;;;;;;5035223;28;20033;-74
2020/12/25 03:29:55;;;;;;;5.83;2.00;;;4.50;90.70;;;;;;5035608;28;20378;-75
2020/12/25 03:32:20;;;;;;;3.73;1.47;;;4.40;91.00;;;;;;5053271;28;20079;-75
2020/12/25 03:34:46;;;;;;;3.93;1.57;;;4.40;91.20;;;;;;5052874;28;20036;-75
2020/12/25 03:37:12;;;;;;;2.47;1.90;;;4.50;91.30;;;;;;5053141;28;20025;-75
2020/12/25 03:39:37;;;;;;;3.97;1.77;;;4.40;91.40;;;;;;5034989;28;20033;-75
2020/12/25 03:42:03;;;;;;;4.53;2.07;;;4.50;91.30;;;;;;5053252;28;20374;-75
2020/12/25 03:44:28;;;;;;;4.37;2.23;;;4.50;91.30;;;;;;5052654;28;20095;-75
2020/12/25 03:46:54;;;;;;;4.10;2.13;;;4.60;91.30;;;;;;5053180;28;20119;-75
2020/12/25 03:49:20;;;;;;;3.33;2.30;;;4.50;91.20;;;;;;5052873;28;20032;-75
2020/12/25 03:51:45;;;;;;;4.43;2.17;;;4.60;91.20;;;;;;5034487;28;20514;-75
2020/12/25 03:54:11;;;;;;;5.50;2.80;;;4.60;91.30;;;;;;5035367;28;20036;-75
2020/12/25 03:56:36;;;;;;;3.37;2.13;;;4.60;91.40;;;;;;5052521;28;20033;-75
2020/12/25 03:59:02;;;;;;;6.13;2.47;;;4.50;91.30;;;;;;5053086;28;20466;-75
2020/12/25 04:01:27;;;;;;;4.90;2.87;;;4.50;91.30;;;;;;5052051;28;20036;-74
2020/12/25 04:03:53;;;;;;;4.33;2.17;;;4.60;91.00;;;;;;5035309;28;20191;-75
2020/12/25 04:06:19;;;;;;;4.13;2.30;;;4.60;91.00;;;;;;5052769;28;20021;-75
2020/12/25 04:08:45;;;;;;;3.60;2.00;;;4.50;91.10;;;;;;5034441;28;20494;-75
2020/12/25 04:11:11;;;;;;;3.73;2.27;;;4.50;91.10;;;;;;5034926;28;20536;-75
2020/12/25 04:13:36;;;;;;;4.23;2.27;;;4.50;91.10;;;;;;5052155;28;20028;-75
2020/12/25 04:16:03;;;;;;;5.10;2.20;;;4.40;91.10;;;;;;5034997;28;20025;-75
2020/12/25 04:18:29;;;;;;;4.23;2.00;;;4.40;91.10;;;;;;5034293;28;20029;-74
2020/12/25 04:20:57;;;;;;;7.77;2.93;;;4.40;91.20;;;;;;5052308;28;20030;-75
2020/12/25 04:23:22;;;;;;;4.60;2.33;;;4.30;91.20;;;;;;5052308;28;20406;-75
2020/12/25 04:25:48;;;;;;;7.70;2.00;;;4.40;91.10;;;;;;5051848;28;20060;-75
2020/12/25 04:28:14;;;;;;;3.67;1.97;;;4.40;91.00;;;;;;5052564;28;20462;-75
2020/12/25 04:30:39;;;;;;;4.73;2.40;;;4.40;90.90;;;;;;5052241;28;20108;-75
2020/12/25 04:33:05;;;;;;;5.13;2.37;;;4.50;90.90;;;;;;5034618;28;20052;-75
2020/12/25 04:35:30;;;;;;;3.63;1.93;;;4.50;90.90;;;;;;5034125;28;20025;-74
2020/12/25 04:37:56;;;;;;;3.73;2.03;;;4.50;90.80;;;;;;5034664;28;20028;-75
2020/12/25 04:40:22;;;;;;;3.27;2.10;;;4.50;90.60;;;;;;5034633;28;20020;-75
2020/12/25 04:42:51;;;;;;;5.47;2.57;;;4.50;90.60;;;;;;5033980;28;20087;-75
2020/12/25 04:45:17;;;;;;;5.13;2.20;;;4.50;90.60;;;;;;5034491;28;20025;-75
2020/12/25 04:47:46;;;;;;;3.83;2.33;;;4.50;90.50;;;;;;5051811;28;20225;-75
2020/12/25 04:50:12;;;;;;;3.93;2.53;;;4.60;90.40;;;;;;5052430;28;20087;-75
2020/12/25 04:52:38;;;;;;;4.87;2.07;;;4.50;90.40;;;;;;5033716;28;20111;-75
2020/12/25 04:55:04;;;;;;;10.77;5.53;;;4.50;90.40;;;;;;5036209;28;20466;-75
2020/12/25 04:57:30;;;;;;;4.17;2.47;;;4.50;90.40;;;;;;5055784;28;20029;-74
2020/12/25 04:59:55;;;;;;;5.53;2.20;;;4.50;90.60;;;;;;5056500;28;20373;-75
2020/12/25 05:02:21;;;;;;;4.00;2.10;;;4.50;90.50;;;;;;5056212;28;20541;-75
2020/12/25 05:04:47;;;;;;;6.60;2.40;;;4.50;90.40;;;;;;5037738;28;20052;-75
2020/12/25 05:07:14;;;;;;;7.07;2.30;;;4.50;90.60;;;;;;5038315;28;20029;-74
2020/12/25 05:09:40;;;;;;;6.70;2.47;;;4.50;90.50;;;;;;5037793;28;20091;-74
2020/12/25 05:12:11;;;;;;;5.57;2.37;;;4.50;90.60;;;;;;5056171;28;20029;-75
2020/12/25 05:14:41;;;;;;;6.70;2.35;;;4.50;90.40;;;;;;5037694;28;20100;-74
2020/12/25 05:17:11;;;;;;;5.20;2.60;;;4.50;90.50;;;;;;5038222;28;20037;-75
2020/12/25 05:19:40;;;;;;;4.40;2.37;;;4.50;90.40;;;;;;5055447;28;20056;-75
2020/12/25 05:22:07;;;;;;;4.60;2.47;;;4.60;90.30;;;;;;5038173;28;20078;-75
2020/12/25 05:24:39;;;;;;;4.00;2.40;;;4.60;90.10;;;;;;5037438;28;20052;-75
2020/12/25 05:27:14;;;;;;;5.33;2.50;;;4.60;90.30;;;;;;5037725;28;20029;-75
2020/12/25 05:29:40;;;;;;;4.17;2.40;;;4.70;90.10;;;;;;5037385;28;20037;-74
2020/12/25 05:32:07;;;;;;;5.80;2.60;;;4.70;90.10;;;;;;5055823;28;20068;-75
2020/12/25 05:34:34;;;;;;;7.00;2.40;;;4.60;90.00;;;;;;5055126;28;20032;-74
2020/12/25 05:37:01;;;;;;;6.37;2.70;;;4.50;90.30;;;;;;5055740;28;20033;-75
2020/12/25 05:39:30;;;;;;;6.30;2.67;;;4.60;89.90;;;;;;5055718;28;20031;-75
2020/12/25 05:41:57;;;;;;;7.33;2.33;;;4.60;89.90;;;;;;5055551;28;20036;-75
2020/12/25 05:44:24;;;;;;;4.47;2.10;;;4.60;89.50;;;;;;5055638;28;20036;-75
2020/12/25 05:46:50;;;;;;;5.77;2.20;;;4.70;88.10;;;;;;5054891;28;20408;-74
2020/12/25 05:49:16;;;;;;;3.57;2.00;;;4.80;86.10;;;;;;5037549;28;20025;-74
2020/12/25 05:51:49;;;;;;;4.73;1.83;;;4.80;85.60;;;;;;5036758;28;20025;-75
2020/12/25 05:54:23;;;;;;;5.03;2.10;;;4.80;85.00;;;;;;5055461;28;20067;-75
2020/12/25 05:56:57;;;;;;;3.77;1.87;;;4.80;84.80;;;;;;5036874;28;20029;-75
2020/12/25 05:59:25;;;;;;;4.83;2.50;;;4.90;85.80;;;;;;5055230;28;20033;-76
2020/12/25 06:01:59;;;;;;;3.93;2.23;;;4.90;86.60;;;;;;5036598;28;20615;-76
2020/12/25 06:04:29;;;;;;;6.97;3.40;;;4.80;86.60;;;;;;5037384;28;20044;-75
2020/12/25 06:06:55;;;;;;;11.13;5.47;;;4.80;86.80;;;;;;5053102;28;20025;-75
2020/12/25 06:09:29;;;;;;;6.73;3.93;;;4.80;86.50;;;;;;5037165;28;20458;-75
2020/12/25 06:11:55;;;;;;;7.33;4.10;;;4.80;86.30;;;;;;5036577;28;20029;-75
2020/12/25 06:14:21;;;;;;;5.70;2.83;;;4.70;86.80;;;;;;5055348;28;20055;-75
2020/12/25 06:16:58;;;;;;;5.20;2.67;;;4.80;86.30;;;;;;5036551;28;20060;-74
2020/12/25 06:19:44;;;;;;;5.53;2.60;;;4.80;85.40;;;;;;5054630;28;20470;-75
2020/12/25 06:22:24;;;;;;;4.43;2.70;;;4.80;85.40;;;;;;5036957;28;20115;-75
2020/12/25 06:24:56;;;;;;;5.87;2.83;;;4.80;84.80;;;;;;5036331;28;20214;-75
2020/12/25 06:27:25;;;;;;;6.13;2.80;;;4.90;85.20;;;;;;5036971;28;20033;-75
2020/12/25 06:29:53;;;;;;;4.90;2.67;;;4.90;85.00;;;;;;5036244;28;20025;-75
2020/12/25 06:32:21;;;;;;;5.50;2.53;;;4.80;84.80;;;;;;5054385;28;20025;-75
2020/12/25 06:34:49;;;;;;;6.97;2.57;;;4.80;84.40;;;;;;5054011;28;20028;-75
2020/12/25 06:37:15;;;;;;;5.63;2.63;;;4.80;85.00;;;;;;5054563;28;20021;-74
2020/12/25 06:39:52;;;;;;;4.00;2.40;;;4.70;84.80;;;;;;5053900;28;20032;-74
2020/12/25 06:42:32;;;;;;;4.43;2.53;;;4.80;84.90;;;;;;5036599;28;20037;-75
2020/12/25 06:44:59;;;;;;;4.93;2.50;;;4.80;85.00;;;;;;5053866;28;20113;-74
2020/12/25 06:47:27;;;;;;;5.63;2.77;;;4.80;85.00;;;;;;5054162;28;20035;-75
2020/12/25 06:49:52;;;;;;;4.67;2.90;;;4.80;84.90;;;;;;5035797;28;20021;-75
2020/12/25 06:52:30;;;;;;;5.80;2.57;;;4.90;84.90;;;;;;5036245;28;20106;-75
2020/12/25 06:54:57;;;;;;;5.73;2.60;;;4.90;84.40;;;;;;5053436;28;20029;-75
2020/12/25 06:57:26;;;;;;;4.17;2.50;;;4.90;83.90;;;;;;5036378;28;20467;-76
2020/12/25 06:59:52;;;;;;;6.93;2.40;;;4.90;84.30;;;;;;5053494;28;20078;-74
2020/12/25 07:02:19;;;;;;;4.17;2.70;;;4.90;84.30;;;;;;5035974;28;20037;-75
2020/12/25 07:04:45;;;;;;;5.97;3.13;;;4.90;84.20;;;;;;5035566;28;20025;-75
2020/12/25 07:07:11;;;;;;;4.17;2.23;;;4.90;83.90;;;;;;5053944;28;20056;-75
2020/12/25 07:09:45;;;;;;;7.10;2.83;;;4.90;84.10;;;;;;5053368;28;20025;-74
2020/12/25 07:12:22;;;;;;;5.33;2.67;;;4.90;84.30;;;;;;5035933;28;20031;-75
2020/12/25 07:14:49;;;;;;;5.83;2.80;;;4.90;84.20;;;;;;5035322;28;20484;-75
2020/12/25 07:17:15;;;;;;;4.93;2.80;;;4.90;84.50;;;;;;5053349;28;20040;-75
2020/12/25 07:19:43;;;;;;;5.20;2.60;;;4.90;84.50;;;;;;5035319;28;20029;-75
2020/12/25 07:22:09;;;;;;;5.40;2.47;;;4.90;84.20;;;;;;5035947;28;20037;-75
2020/12/25 07:24:41;;;;;;;4.17;2.30;;;4.90;84.40;;;;;;5053640;28;20059;-75
2020/12/25 07:27:08;;;;;;;4.87;2.70;;;4.90;84.60;;;;;;5035407;28;20398;-75
2020/12/25 07:29:35;;;;;;;5.77;2.60;;;4.90;84.70;;;;;;5053635;28;20470;-75
2020/12/25 07:32:01;;;;;;;6.17;2.60;;;4.90;84.80;;;;;;5035011;28;20033;-75
2020/12/25 07:34:27;;;;;;;4.30;2.73;;;4.90;85.10;;;;;;5035591;28;20083;-75
2020/12/25 07:36:55;;;;;;;3.77;2.40;;;4.90;84.80;;;;;;5052496;28;20474;-74
2020/12/25 07:39:22;;;;;;;3.93;2.37;;;4.90;84.70;;;;;;5053451;28;20100;-75
2020/12/25 07:41:48;;;;;;;3.23;2.20;;;4.90;84.60;;;;;;5034814;28;20060;-75
2020/12/25 07:44:14;;;;;;;4.20;2.23;;;4.90;84.60;;;;;;5053778;28;20423;-75
2020/12/25 07:46:40;;;;;;;7.00;3.23;;;4.90;84.70;;;;;;5034784;28;20029;-74
2020/12/25 07:49:07;;;;;;;5.13;3.10;;;4.90;84.90;;;;;;5053307;28;20040;-75
2020/12/25 07:51:34;;;;;;;8.77;3.00;;;5.00;84.90;;;;;;5035059;28;20029;-75
2020/12/25 07:54:00;;;;;;;5.70;2.40;;;4.90;85.00;;;;;;5034732;28;20378;-75
2020/12/25 07:56:29;;;;;;;4.00;2.50;;;5.00;85.10;;;;;;5035162;28;20470;-75
2020/12/25 07:58:55;;;;;;;4.77;2.67;;;5.00;85.30;;;;;;5052467;28;20147;-75
2020/12/25 08:01:23;;;;;;;6.00;2.73;;;4.90;85.30;;;;;;5035076;28;20040;-75
2020/12/25 08:03:49;;;;;;;5.03;2.53;;;4.90;85.70;;;;;;5052410;28;20459;-75
2020/12/25 08:06:16;;;;;;;3.47;2.40;;;5.00;85.60;;;;;;5035036;28;20375;-75
2020/12/25 08:08:53;;;;;;;4.27;2.70;;;5.00;85.60;;;;;;5052278;28;20096;-74
2020/12/25 08:11:20;;;;;;;5.27;2.70;;;5.00;85.40;;;;;;5052561;28;20033;-75
2020/12/25 08:13:49;;;;;;;4.90;3.00;;;5.00;85.50;;;;;;5034328;28;20506;-75
2020/12/25 08:16:15;;;;;;;5.20;2.43;;;5.00;85.10;;;;;;5035181;28;20106;-75
2020/12/25 08:18:41;;;;;;;6.87;2.80;;;5.00;84.70;;;;;;5034253;28;20067;-74
2020/12/25 08:21:07;;;;;;;4.73;2.97;;;5.10;84.20;;;;;;5052595;28;20037;-75
2020/12/25 08:23:34;;;;;;;4.53;2.83;;;5.10;84.10;;;;;;5052787;28;20025;-75
2020/12/25 08:26:00;;;;;;;6.53;2.50;;;5.10;84.00;;;;;;5034066;28;20574;-74
2020/12/25 08:28:29;;;;;;;6.50;2.80;;;5.20;83.80;;;;;;5034484;28;20029;-75
2020/12/25 08:30:54;;;;;;;3.63;2.47;;;5.20;83.50;;;;;;5033624;28;20075;-75
2020/12/25 08:33:26;;;;;;;4.93;2.80;;;5.20;84.10;;;;;;5034737;28;20478;-75
2020/12/25 08:35:53;;;;;;;4.50;2.73;;;5.20;84.00;;;;;;5051871;28;20051;-75
2020/12/25 08:38:20;;;;;;;5.13;2.43;;;5.20;83.50;;;;;;5052485;28;20494;-75
2020/12/25 08:40:47;;;;;;;5.20;3.20;;;5.20;83.50;;;;;;5034136;28;20044;-74
2020/12/25 08:43:18;;;;;;;3.93;2.50;;;5.20;83.40;;;;;;5052696;28;20028;-75
2020/12/25 08:46:00;;;;;;;5.27;2.63;;;5.20;83.20;;;;;;5034063;28;20025;-74
2020/12/25 08:48:26;;;;;;;;;;;5.20;83.00;;;;;;5052940;28;20032;-75
2020/12/25 08:51:14;;;;;;;4.60;2.90;;;5.20;83.60;;;;;;5051781;28;19905;-75
2020/12/25 08:53:49;;;;;;;4.60;2.60;;;5.20;83.30;;;;;;5033933;28;20169;-75
2020/12/25 08:56:20;;;;;;;5.67;2.80;;;5.20;82.90;;;;;;5034504;28;20029;-75
2020/12/25 08:59:01;;;;;;;3.57;2.23;;;5.30;82.40;;;;;;5033963;28;20040;-75
2020/12/25 09:01:28;;;;;;;4.85;2.63;;;5.30;82.20;;;;;;5052542;28;20037;-75
2020/12/25 09:03:56;;;;;;;3.97;2.37;;;5.30;81.90;;;;;;5033815;28;20037;-75
2020/12/25 09:06:22;;;;;;;4.43;2.20;;;5.30;81.30;;;;;;5052212;28;20454;-75
2020/12/25 09:08:48;;;;;;;2.57;2.00;;;5.30;81.10;;;;;;5051669;28;20025;-75
2020/12/25 09:11:16;;;;;;;3.67;2.13;;;5.30;81.00;;;;;;5034413;28;20079;-75
2020/12/25 09:13:43;;;;;;;3.20;2.17;;;5.30;81.20;;;;;;5052138;28;20028;-75
2020/12/25 09:16:09;;;;;;;5.40;2.20;;;5.30;81.40;;;;;;5034510;28;20056;-75
2020/12/25 09:18:36;;;;;;;4.57;2.40;;;5.30;81.30;;;;;;5052480;28;20037;-75
2020/12/25 09:21:03;;;;;;;4.07;2.40;;;5.30;81.00;;;;;;5033578;28;20060;-75
2020/12/25 09:23:28;;;;;;;3.93;2.30;;;5.40;81.20;;;;;;5034146;28;20032;-75
2020/12/25 09:25:54;;;;;;;4.33;2.10;;;5.30;80.20;;;;;;5033391;28;20022;-75
2020/12/25 09:28:20;;;;;;;3.87;2.30;;;5.30;80.00;;;;;;5052046;28;20040;-75
2020/12/25 09:30:46;;;;;;;4.00;2.50;;;5.30;80.30;;;;;;5033522;28;20053;-74
2020/12/25 09:33:11;;;;;;;5.63;2.57;;;5.40;80.10;;;;;;5051984;28;20055;-75
2020/12/25 09:35:37;;;;;;;5.90;2.60;;;5.40;79.60;;;;;;5051939;28;20025;-75
2020/12/25 09:38:03;;;;;;;3.63;2.13;;;5.50;79.30;;;;;;5033555;28;20079;-75
2020/12/25 09:40:28;;;;;;;3.70;2.20;;;5.50;78.60;;;;;;5034911;28;20461;-75
2020/12/25 09:42:54;;;;;;;3.73;1.90;;;5.50;78.10;;;;;;5037117;28;20533;-74
2020/12/25 09:45:20;;;;;;;3.33;1.90;;;5.50;79.00;;;;;;5037651;28;20465;-74
2020/12/25 09:47:45;;;;;;;4.57;2.23;;;5.40;78.30;;;;;;5054917;28;20029;-74
2020/12/25 09:50:11;;;;;;;3.37;2.27;;;5.50;78.00;;;;;;5037647;28;20120;-75
2020/12/25 09:52:37;;;;;;;4.33;2.03;;;5.50;77.90;;;;;;5055432;28;20083;-75
2020/12/25 09:55:03;;;;;;;5.33;2.40;;;5.50;77.80;;;;;;5036772;28;20021;-74
2020/12/25 09:57:29;;;;;;;4.67;2.07;;;5.60;78.00;;;;;;5037106;28;20068;-75
2020/12/25 09:59:55;;;;;;;3.97;2.00;;;5.60;78.50;;;;;;5054988;28;20056;-75
2020/12/25 10:02:22;;;;;;;4.57;2.40;;;5.60;76.90;;;;;;5037475;28;20080;-75
2020/12/25 10:04:48;;;;;;;4.43;2.00;;;5.60;77.00;;;;;;5054330;28;20386;-74
2020/12/25 10:07:13;;;;;;;3.60;2.00;;;5.60;76.20;;;;;;5055166;28;20040;-75
2020/12/25 10:09:39;;;;;;;4.63;2.40;;;5.60;76.70;;;;;;5037304;28;20021;-75
2020/12/25 10:12:05;;;;;;;4.90;2.30;;;5.50;75.60;;;;;;5036571;28;20028;-75
2020/12/25 10:14:31;;;;;;;6.07;3.47;;;5.50;75.80;;;;;;5037339;28;20378;-75
2020/12/25 10:16:57;;;;;;;6.83;2.30;;;5.50;75.90;;;;;;5054687;28;20501;-75
2020/12/25 10:19:23;;;;;;;6.83;2.00;;;5.50;75.90;;;;;;5037109;28;20408;-75
2020/12/25 10:21:51;;;;;;;4.73;2.00;;;5.50;75.10;;;;;;5054239;28;20041;-75
2020/12/25 10:24:17;;;;;;;2.53;1.73;;;5.60;75.40;;;;;;5054843;28;20029;-75
2020/12/25 10:26:48;;;;;;;4.93;1.90;;;5.60;74.80;;;;;;5037063;28;20028;-75
2020/12/25 10:29:14;;;;;;;3.93;2.30;;;5.50;74.30;;;;;;5054757;28;20103;-75
2020/12/25 10:31:39;;;;;;;3.83;1.83;;;5.50;75.10;;;;;;5036867;28;20125;-75
2020/12/25 10:34:05;;;;;;;5.10;2.13;;;5.50;74.80;;;;;;5054018;28;20355;-75
2020/12/25 10:36:30;;;;;;;3.57;2.20;;;5.50;74.70;;;;;;5036812;28;20083;-75
2020/12/25 10:38:56;;;;;;;4.33;2.03;;;5.50;74.90;;;;;;5036214;28;20032;-75
2020/12/25 10:41:29;;;;;;;4.10;2.03;;;5.50;74.90;;;;;;5054488;28;20033;-75
2020/12/25 10:43:55;;;;;;;3.97;1.70;;;5.40;74.10;;;;;;5036054;28;20029;-75
2020/12/25 10:46:20;;;;;;;3.90;2.10;;;5.40;73.60;;;;;;5036549;28;20124;-75
2020/12/25 10:48:46;;;;;;;4.37;1.90;;;5.30;73.80;;;;;;5054709;28;20027;-75
2020/12/25 10:51:12;;;;;;;4.43;2.07;;;5.30;74.40;;;;;;5053657;28;20083;-75
2020/12/25 10:53:37;;;;;;;2.80;1.60;;;5.20;75.50;;;;;;5053563;28;20052;-75
2020/12/25 10:56:03;;;;;;;3.67;2.10;;;5.20;75.20;;;;;;5035726;28;20032;-75
2020/12/25 10:58:28;;;;;;;2.73;1.80;;;5.20;75.10;;;;;;5054338;28;20033;-75
2020/12/25 11:00:54;;;;;;;2.20;1.63;;;5.20;75.80;;;;;;5053320;28;20025;-75
2020/12/25 11:03:20;;;;;;;3.63;1.93;;;5.20;75.10;;;;;;5053828;28;20028;-75
2020/12/25 11:05:48;;;;;;;3.33;1.90;;;5.30;74.50;;;;;;5036197;28;20458;-75
2020/12/25 11:08:14;;;;;;;4.60;1.90;;;5.40;74.70;;;;;;5053390;28;20116;-75
2020/12/25 11:10:44;;;;;;;7.60;3.27;;;5.40;74.70;;;;;;5036067;28;20057;-75
2020/12/25 11:13:10;;;;;;;3.50;2.43;;;5.50;74.30;;;;;;5053390;28;20257;-75
2020/12/25 11:15:38;;;;;;;4.90;2.00;;;5.60;73.60;;;;;;5036044;28;20029;-75
2020/12/25 11:18:04;;;;;;;3.53;2.00;;;5.60;73.40;;;;;;5035323;28;20128;-74
2020/12/25 11:20:29;;;;;;;3.17;2.00;;;5.50;73.40;;;;;;5053830;28;20063;-75
2020/12/25 11:22:55;;;;;;;3.77;1.90;;;5.60;73.50;;;;;;5052721;28;20379;-74
2020/12/25 11:25:21;;;;;;;2.93;1.70;;;5.60;72.50;;;;;;5035696;28;20028;-75
2020/12/25 11:27:46;;;;;;;3.53;1.97;;;5.60;72.80;;;;;;5053645;28;20029;-75
2020/12/25 11:30:12;;;;;;;2.83;1.90;;;5.60;72.60;;;;;;5052724;28;20028;-75
2020/12/25 11:32:37;;;;;;;4.60;2.27;;;5.70;72.10;;;;;;5036036;28;20466;-75
2020/12/25 11:35:04;;;;;;;6.63;2.30;;;5.60;71.10;;;;;;5052674;28;20489;-75
2020/12/25 11:37:30;;;;;;;3.27;1.90;;;5.60;70.50;;;;;;5035852;28;20131;-75
2020/12/25 11:39:55;;;;;;;5.77;2.13;;;5.60;70.30;;;;;;5034956;28;20474;-75
2020/12/25 11:42:21;;;;;;;3.23;1.87;;;5.60;70.20;;;;;;5053610;28;20071;-75
2020/12/25 11:44:47;;;;;;;3.40;1.90;;;5.60;68.70;;;;;;5053311;28;20028;-75
2020/12/25 11:47:12;;;;;;;5.23;2.23;;;5.60;69.70;;;;;;5052647;28;20044;-75
2020/12/25 11:49:38;;;;;;;3.50;1.83;;;5.60;69.60;;;;;;5053479;28;20021;-75
2020/12/25 11:52:04;;;;;;;4.10;2.17;;;5.60;68.00;;;;;;5052379;28;20053;-75
2020/12/25 11:54:29;;;;;;;4.30;1.90;;;5.60;67.60;;;;;;5035511;28;20029;-75
2020/12/25 11:56:55;;;;;;;4.80;2.40;;;5.70;68.00;;;;;;5034717;28;20454;-75
2020/12/25 11:59:20;;;;;;;3.10;1.77;;;5.70;67.90;;;;;;5053020;28;20067;-75
2020/12/25 12:01:47;;;;;;;3.67;2.13;;;5.70;67.60;;;;;;5034973;28;20436;-75
2020/12/25 12:04:13;;;;;;;7.30;3.07;;;5.70;68.00;;;;;;5034576;28;20722;-75
2020/12/25 12:06:38;;;;;;;10.57;4.63;;;5.70;68.60;;;;;;5052958;28;20032;-74
2020/12/25 12:09:04;;;;;;;4.43;1.63;;;5.80;68.50;;;;;;5052324;28;20363;-75
2020/12/25 12:11:30;;;;;;;3.50;1.80;;;5.80;68.40;;;;;;5052661;28;20210;-75
2020/12/25 12:13:55;;;;;;;5.07;1.80;;;5.80;68.50;;;;;;5033892;28;20029;-74
2020/12/25 12:16:21;;;;;;;4.20;2.10;;;5.80;68.90;;;;;;5052418;28;20516;-74
2020/12/25 12:18:48;;;;;;;2.67;1.73;;;5.80;68.00;;;;;;5034536;28;20050;-74
2020/12/25 12:21:14;;;;;;;3.70;2.00;;;5.80;67.00;;;;;;5051990;28;20317;-74
2020/12/25 12:23:40;;;;;;;3.00;1.43;;;5.70;68.20;;;;;;5052685;28;20025;-74
2020/12/25 12:26:06;;;;;;;5.77;1.80;;;5.70;67.90;;;;;;5052149;28;20025;-75
2020/12/25 12:28:31;;;;;;;3.50;1.53;;;6.20;66.90;;;;;;5034568;28;20040;-75
2020/12/25 12:30:57;;;;;;;3.33;1.50;;;6.30;65.90;;;;;;5033951;28;20382;-74
2020/12/25 12:33:23;;;;;;;1.93;1.30;;;6.40;65.60;;;;;;5034504;28;20107;-75
2020/12/25 12:35:49;;;;;;;2.83;1.50;;;6.50;64.30;;;;;;5033866;28;20360;-75
2020/12/25 12:38:15;;;;;;;3.43;1.40;;;6.60;63.70;;;;;;5051606;28;20029;-75
2020/12/25 12:40:41;;;;;;;3.33;1.80;;;6.60;64.20;;;;;;5052041;28;20033;-75
2020/12/25 12:43:07;;;;;;;2.27;1.33;;;6.50;62.40;;;;;;5033629;28;20039;-75
2020/12/25 12:45:33;;;;;;;2.63;1.60;;;6.50;63.80;;;;;;5052027;28;20057;-75
2020/12/25 12:47:59;;;;;;;2.03;1.30;;;6.60;63.70;;;;;;5051576;28;20477;-74
2020/12/25 12:50:25;;;;;;;3.00;1.60;;;6.60;61.70;;;;;;5034384;28;20025;-75
2020/12/25 12:52:55;;;;;;;2.60;1.60;;;6.80;61.20;;;;;;5051656;28;20445;-75
2020/12/25 12:55:21;;;;;;;2.43;1.50;;;6.80;61.00;;;;;;5050736;28;20044;-75